sensor_id;sensor_type;location;lat;lon;timestamp;pressure;altitude;pressure_sealevel;temperature;humidity
14269;BME280;7218;51.480;7.006;2023-07-30T00:00:33;99426.00;;;12.79;100.00
14269;BME280;7218;51.480;7.006;2023-07-30T00:02:59;99424.56;;;12.92;100.00
14269;BME280;7218;51.480;7.006;2023-07-30T00:05:26;99427.38;;;12.88;100.00
14269;BME280;7218;51.480;7.006;2023-07-30T00:07:53;99424.41;;;12.95;100.00
14269;BME280;7218;51.480;7.006;2023-07-30T00:10:21;99424.91;;;12.85;100.00
14269;BME280;7218;51.480;7.006;2023-07-30T00:12:48;99421.94;;;12.92;100.00
14269;BME280;7218;51.480;7.006;2023-07-30T00:15:14;99427.22;;;12.91;100.00
14269;BME280;7218;51.480;7.006;2023-07-30T00:17:41;99425.25;;;12.76;100.00
14269;BME280;7218;51.480;7.006;2023-07-30T00:20:08;99421.53;;;12.81;100.00
14269;BME280;7218;51.480;7.006;2023-07-30T00:22:35;99416.09;;;12.66;100.00
14269;BME280;7218;51.480;7.006;2023-07-30T00:25:01;99419.03;;;12.58;100.00
14269;BME280;7218;51.480;7.006;2023-07-30T00:27:30;99419.75;;;12.62;100.00
14269;BME280;7218;51.480;7.006;2023-07-30T00:29:56;99429.88;;;12.49;100.00
14269;BME280;7218;51.480;7.006;2023-07-30T00:32:23;99427.47;;;12.44;100.00
14269;BME280;7218;51.480;7.006;2023-07-30T00:34:49;99424.50;;;12.52;100.00
14269;BME280;7218;51.480;7.006;2023-07-30T00:37:16;99426.97;;;12.35;100.00
14269;BME280;7218;51.480;7.006;2023-07-30T00:39:42;99424.91;;;12.43;100.00
14269;BME280;7218;51.480;7.006;2023-07-30T00:42:09;99430.06;;;12.44;100.00
14269;BME280;7218;51.480;7.006;2023-07-30T00:44:37;99427.28;;;12.49;100.00
14269;BME280;7218;51.480;7.006;2023-07-30T00:47:04;99423.22;;;12.40;100.00
14269;BME280;7218;51.480;7.006;2023-07-30T00:49:30;99423.50;;;12.34;100.00
14269;BME280;7218;51.480;7.006;2023-07-30T00:52:00;99426.41;;;12.27;100.00
14269;BME280;7218;51.480;7.006;2023-07-30T00:54:27;99432.38;;;12.08;100.00
14269;BME280;7218;51.480;7.006;2023-07-30T00:56:53;99436.13;;;12.01;100.00
14269;BME280;7218;51.480;7.006;2023-07-30T00:59:20;99428.69;;;12.14;100.00
14269;BME280;7218;51.480;7.006;2023-07-30T01:01:51;99432.72;;;12.21;100.00
14269;BME280;7218;51.480;7.006;2023-07-30T01:04:18;99430.44;;;12.14;100.00
14269;BME280;7218;51.480;7.006;2023-07-30T01:06:45;99431.75;;;12.02;100.00
14269;BME280;7218;51.480;7.006;2023-07-30T01:09:11;99431.66;;;12.05;100.00
14269;BME280;7218;51.480;7.006;2023-07-30T01:11:38;99430.81;;;12.04;100.00
14269;BME280;7218;51.480;7.006;2023-07-30T01:14:06;99440.81;;;11.93;100.00
14269;BME280;7218;51.480;7.006;2023-07-30T01:16:34;99441.72;;;11.92;100.00
14269;BME280;7218;51.480;7.006;2023-07-30T01:19:02;99445.97;;;11.95;100.00
14269;BME280;7218;51.480;7.006;2023-07-30T01:21:32;99444.16;;;11.97;100.00
14269;BME280;7218;51.480;7.006;2023-07-30T01:23:58;99438.19;;;11.93;100.00
14269;BME280;7218;51.480;7.006;2023-07-30T01:26:30;99444.38;;;11.91;100.00
14269;BME280;7218;51.480;7.006;2023-07-30T01:29:00;99444.94;;;11.99;100.00
14269;BME280;7218;51.480;7.006;2023-07-30T01:31:30;99449.72;;;11.88;100.00
14269;BME280;7218;51.480;7.006;2023-07-30T01:33:59;99442.63;;;11.91;100.00
14269;BME280;7218;51.480;7.006;2023-07-30T01:36:28;99445.47;;;11.85;100.00
14269;BME280;7218;51.480;7.006;2023-07-30T01:38:57;99457.19;;;11.75;100.00
14269;BME280;7218;51.480;7.006;2023-07-30T01:41:26;99453.19;;;11.65;100.00
14269;BME280;7218;51.480;7.006;2023-07-30T01:43:53;99456.56;;;11.67;100.00
14269;BME280;7218;51.480;7.006;2023-07-30T01:46:20;99464.22;;;11.72;100.00
14269;BME280;7218;51.480;7.006;2023-07-30T01:48:46;99463.38;;;11.71;100.00
14269;BME280;7218;51.480;7.006;2023-07-30T01:51:13;99468.84;;;11.65;100.00
14269;BME280;7218;51.480;7.006;2023-07-30T01:53:39;99478.00;;;11.52;100.00
14269;BME280;7218;51.480;7.006;2023-07-30T01:56:07;99470.59;;;11.64;100.00
14269;BME280;7218;51.480;7.006;2023-07-30T01:58:33;99476.69;;;11.65;100.00
14269;BME280;7218;51.480;7.006;2023-07-30T02:01:00;99477.44;;;11.44;100.00
14269;BME280;7218;51.480;7.006;2023-07-30T02:03:26;99477.94;;;11.30;100.00
14269;BME280;7218;51.480;7.006;2023-07-30T02:05:53;99472.59;;;11.33;100.00
14269;BME280;7218;51.480;7.006;2023-07-30T02:08:19;99477.97;;;11.29;100.00
14269;BME280;7218;51.480;7.006;2023-07-30T02:10:54;99471.06;;;11.28;100.00
14269;BME280;7218;51.480;7.006;2023-07-30T02:13:22;99467.50;;;11.30;100.00
14269;BME280;7218;51.480;7.006;2023-07-30T02:15:49;99472.28;;;11.17;100.00
14269;BME280;7218;51.480;7.006;2023-07-30T02:18:15;99466.16;;;11.18;100.00
14269;BME280;7218;51.480;7.006;2023-07-30T02:20:42;99462.16;;;11.33;100.00
14269;BME280;7218;51.480;7.006;2023-07-30T02:23:08;99464.81;;;11.32;100.00
14269;BME280;7218;51.480;7.006;2023-07-30T02:25:35;99464.28;;;11.22;100.00
14269;BME280;7218;51.480;7.006;2023-07-30T02:28:01;99474.31;;;11.09;100.00
14269;BME280;7218;51.480;7.006;2023-07-30T02:30:29;99474.19;;;11.12;100.00
14269;BME280;7218;51.480;7.006;2023-07-30T02:32:55;99470.47;;;11.19;100.00
14269;BME280;7218;51.480;7.006;2023-07-30T02:35:22;99470.53;;;11.18;100.00
14269;BME280;7218;51.480;7.006;2023-07-30T02:37:48;99473.53;;;11.06;100.00
14269;BME280;7218;51.480;7.006;2023-07-30T02:40:15;99477.44;;;10.94;100.00
14269;BME280;7218;51.480;7.006;2023-07-30T02:42:42;99475.00;;;11.14;100.00
14269;BME280;7218;51.480;7.006;2023-07-30T02:45:08;99472.47;;;11.11;100.00
14269;BME280;7218;51.480;7.006;2023-07-30T02:47:36;99476.59;;;11.18;100.00
14269;BME280;7218;51.480;7.006;2023-07-30T02:50:03;99482.03;;;11.12;100.00
14269;BME280;7218;51.480;7.006;2023-07-30T02:52:31;99472.19;;;10.96;100.00
14269;BME280;7218;51.480;7.006;2023-07-30T02:54:57;99473.84;;;10.97;100.00
14269;BME280;7218;51.480;7.006;2023-07-30T02:57:24;99471.78;;;11.06;100.00
14269;BME280;7218;51.480;7.006;2023-07-30T02:59:50;99468.28;;;11.07;100.00
14269;BME280;7218;51.480;7.006;2023-07-30T03:02:17;99475.59;;;10.96;100.00
14269;BME280;7218;51.480;7.006;2023-07-30T03:04:44;99474.44;;;10.80;100.00
14269;BME280;7218;51.480;7.006;2023-07-30T03:07:11;99477.13;;;10.77;100.00
14269;BME280;7218;51.480;7.006;2023-07-30T03:09:38;99469.22;;;10.80;100.00
14269;BME280;7218;51.480;7.006;2023-07-30T03:12:05;99480.44;;;10.82;100.00
14269;BME280;7218;51.480;7.006;2023-07-30T03:14:32;99478.97;;;10.75;100.00
14269;BME280;7218;51.480;7.006;2023-07-30T03:16:58;99474.84;;;10.68;100.00
14269;BME280;7218;51.480;7.006;2023-07-30T03:19:24;99487.34;;;10.57;100.00
14269;BME280;7218;51.480;7.006;2023-07-30T03:21:52;99486.16;;;10.67;100.00
14269;BME280;7218;51.480;7.006;2023-07-30T03:24:19;99481.78;;;10.67;100.00
14269;BME280;7218;51.480;7.006;2023-07-30T03:26:45;99475.94;;;10.61;100.00
14269;BME280;7218;51.480;7.006;2023-07-30T03:29:12;99469.09;;;10.57;100.00
14269;BME280;7218;51.480;7.006;2023-07-30T03:31:38;99485.75;;;10.53;100.00
14269;BME280;7218;51.480;7.006;2023-07-30T03:34:05;99481.75;;;10.41;100.00
14269;BME280;7218;51.480;7.006;2023-07-30T03:36:31;99490.97;;;10.53;100.00
14269;BME280;7218;51.480;7.006;2023-07-30T03:38:59;99482.00;;;10.61;100.00
14269;BME280;7218;51.480;7.006;2023-07-30T03:41:25;99480.09;;;10.66;100.00
14269;BME280;7218;51.480;7.006;2023-07-30T03:43:52;99486.06;;;10.70;100.00
14269;BME280;7218;51.480;7.006;2023-07-30T03:46:18;99497.78;;;10.57;100.00
14269;BME280;7218;51.480;7.006;2023-07-30T03:48:45;99493.34;;;10.60;100.00
14269;BME280;7218;51.480;7.006;2023-07-30T03:51:12;99494.69;;;10.46;100.00
14269;BME280;7218;51.480;7.006;2023-07-30T03:53:38;99502.59;;;10.43;100.00
14269;BME280;7218;51.480;7.006;2023-07-30T03:56:06;99506.59;;;10.53;100.00
14269;BME280;7218;51.480;7.006;2023-07-30T03:58:33;99506.72;;;10.50;100.00
14269;BME280;7218;51.480;7.006;2023-07-30T04:01:01;99504.19;;;10.47;100.00
14269;BME280;7218;51.480;7.006;2023-07-30T04:03:27;99514.91;;;10.38;100.00
14269;BME280;7218;51.480;7.006;2023-07-30T04:05:54;99511.28;;;10.42;100.00
14269;BME280;7218;51.480;7.006;2023-07-30T04:08:20;99507.38;;;10.28;100.00
14269;BME280;7218;51.480;7.006;2023-07-30T04:10:47;99511.50;;;10.35;100.00
14269;BME280;7218;51.480;7.006;2023-07-30T04:13:15;99516.44;;;10.45;100.00
14269;BME280;7218;51.480;7.006;2023-07-30T04:15:41;99512.72;;;10.52;100.00
14269;BME280;7218;51.480;7.006;2023-07-30T04:18:08;99514.81;;;10.41;100.00
14269;BME280;7218;51.480;7.006;2023-07-30T04:20:34;99511.03;;;10.51;100.00
14269;BME280;7218;51.480;7.006;2023-07-30T04:23:01;99501.53;;;10.48;100.00
14269;BME280;7218;51.480;7.006;2023-07-30T04:25:27;99503.25;;;10.49;100.00
14269;BME280;7218;51.480;7.006;2023-07-30T04:27:54;99516.81;;;10.60;100.00
14269;BME280;7218;51.480;7.006;2023-07-30T04:30:22;99503.50;;;10.68;100.00
14269;BME280;7218;51.480;7.006;2023-07-30T04:32:48;99508.50;;;10.75;100.00
14269;BME280;7218;51.480;7.006;2023-07-30T04:35:15;99509.97;;;10.83;100.00
14269;BME280;7218;51.480;7.006;2023-07-30T04:37:41;99507.72;;;10.72;100.00
14269;BME280;7218;51.480;7.006;2023-07-30T04:40:09;99509.25;;;10.79;100.00
14269;BME280;7218;51.480;7.006;2023-07-30T04:42:38;99515.59;;;10.97;100.00
14269;BME280;7218;51.480;7.006;2023-07-30T04:45:08;99516.09;;;11.08;100.00
14269;BME280;7218;51.480;7.006;2023-07-30T04:47:35;99514.22;;;11.11;100.00
14269;BME280;7218;51.480;7.006;2023-07-30T04:50:02;99520.78;;;10.98;100.00
14269;BME280;7218;51.480;7.006;2023-07-30T04:52:29;99517.28;;;10.99;100.00
14269;BME280;7218;51.480;7.006;2023-07-30T04:54:55;99510.72;;;11.12;100.00
14269;BME280;7218;51.480;7.006;2023-07-30T04:57:22;99514.13;;;10.90;100.00
14269;BME280;7218;51.480;7.006;2023-07-30T04:59:48;99522.28;;;11.05;100.00
14269;BME280;7218;51.480;7.006;2023-07-30T05:02:15;99513.53;;;11.06;100.00
14269;BME280;7218;51.480;7.006;2023-07-30T05:04:43;99517.13;;;11.29;100.00
14269;BME280;7218;51.480;7.006;2023-07-30T05:07:09;99521.81;;;11.19;100.00
14269;BME280;7218;51.480;7.006;2023-07-30T05:09:36;99521.16;;;11.12;100.00
14269;BME280;7218;51.480;7.006;2023-07-30T05:12:03;99514.41;;;11.32;100.00
14269;BME280;7218;51.480;7.006;2023-07-30T05:14:30;99520.28;;;11.38;100.00
14269;BME280;7218;51.480;7.006;2023-07-30T05:16:56;99521.53;;;11.27;100.00
14269;BME280;7218;51.480;7.006;2023-07-30T05:19:23;99520.06;;;11.19;100.00
14269;BME280;7218;51.480;7.006;2023-07-30T05:21:51;99526.06;;;11.21;100.00
14269;BME280;7218;51.480;7.006;2023-07-30T05:24:17;99521.38;;;11.31;100.00
14269;BME280;7218;51.480;7.006;2023-07-30T05:26:44;99518.72;;;11.33;100.00
14269;BME280;7218;51.480;7.006;2023-07-30T05:29:10;99527.94;;;11.43;100.00
14269;BME280;7218;51.480;7.006;2023-07-30T05:31:37;99517.66;;;11.63;100.00
14269;BME280;7218;51.480;7.006;2023-07-30T05:34:03;99523.91;;;11.59;100.00
14269;BME280;7218;51.480;7.006;2023-07-30T05:36:30;99507.63;;;11.51;100.00
14269;BME280;7218;51.480;7.006;2023-07-30T05:38:58;99520.44;;;11.34;100.00
14269;BME280;7218;51.480;7.006;2023-07-30T05:41:24;99513.88;;;11.22;100.00
14269;BME280;7218;51.480;7.006;2023-07-30T05:43:51;99524.59;;;11.39;100.00
14269;BME280;7218;51.480;7.006;2023-07-30T05:46:17;99530.66;;;11.40;100.00
14269;BME280;7218;51.480;7.006;2023-07-30T05:48:44;99523.81;;;11.36;100.00
14269;BME280;7218;51.480;7.006;2023-07-30T05:51:10;99524.25;;;11.23;100.00
14269;BME280;7218;51.480;7.006;2023-07-30T05:53:37;99528.44;;;11.29;100.00
14269;BME280;7218;51.480;7.006;2023-07-30T05:56:04;99534.31;;;11.09;100.00
14269;BME280;7218;51.480;7.006;2023-07-30T05:58:31;99526.56;;;11.06;100.00
14269;BME280;7218;51.480;7.006;2023-07-30T06:00:58;99520.94;;;11.45;100.00
14269;BME280;7218;51.480;7.006;2023-07-30T06:03:24;99527.13;;;11.41;100.00
14269;BME280;7218;51.480;7.006;2023-07-30T06:05:51;99529.50;;;11.48;100.00
14269;BME280;7218;51.480;7.006;2023-07-30T06:08:17;99529.63;;;11.45;100.00
14269;BME280;7218;51.480;7.006;2023-07-30T06:10:44;99523.16;;;11.31;100.00
14269;BME280;7218;51.480;7.006;2023-07-30T06:13:13;99525.81;;;11.54;100.00
14269;BME280;7218;51.480;7.006;2023-07-30T06:15:40;99542.06;;;11.62;100.00
14269;BME280;7218;51.480;7.006;2023-07-30T06:18:06;99531.81;;;11.56;100.00
14269;BME280;7218;51.480;7.006;2023-07-30T06:20:33;99536.59;;;11.45;100.00
14269;BME280;7218;51.480;7.006;2023-07-30T06:23:00;99533.66;;;11.54;100.00
14269;BME280;7218;51.480;7.006;2023-07-30T06:25:26;99537.16;;;11.53;100.00
14269;BME280;7218;51.480;7.006;2023-07-30T06:27:53;99536.25;;;11.29;100.00
14269;BME280;7218;51.480;7.006;2023-07-30T06:30:22;99538.81;;;11.31;100.00
14269;BME280;7218;51.480;7.006;2023-07-30T06:32:49;99549.31;;;11.29;100.00
14269;BME280;7218;51.480;7.006;2023-07-30T06:35:15;99547.22;;;11.39;100.00
14269;BME280;7218;51.480;7.006;2023-07-30T06:37:42;99548.75;;;11.19;100.00
14269;BME280;7218;51.480;7.006;2023-07-30T06:40:08;99545.69;;;11.33;100.00
14269;BME280;7218;51.480;7.006;2023-07-30T06:42:35;99541.53;;;11.28;100.00
14269;BME280;7218;51.480;7.006;2023-07-30T06:45:02;99549.34;;;11.52;100.00
14269;BME280;7218;51.480;7.006;2023-07-30T06:47:30;99546.75;;;11.28;100.00
14269;BME280;7218;51.480;7.006;2023-07-30T06:49:57;99544.78;;;11.34;100.00
14269;BME280;7218;51.480;7.006;2023-07-30T06:52:23;99548.19;;;11.61;100.00
14269;BME280;7218;51.480;7.006;2023-07-30T06:54:50;99550.41;;;11.73;100.00
14269;BME280;7218;51.480;7.006;2023-07-30T06:57:16;99553.22;;;11.41;100.00
14269;BME280;7218;51.480;7.006;2023-07-30T06:59:43;99547.81;;;11.47;100.00
14269;BME280;7218;51.480;7.006;2023-07-30T07:02:09;99553.94;;;11.46;100.00
14269;BME280;7218;51.480;7.006;2023-07-30T07:04:37;99563.06;;;11.34;100.00
14269;BME280;7218;51.480;7.006;2023-07-30T07:07:04;99560.94;;;11.45;100.00
14269;BME280;7218;51.480;7.006;2023-07-30T07:09:31;99557.78;;;11.60;100.00
14269;BME280;7218;51.480;7.006;2023-07-30T07:11:58;99563.81;;;11.62;100.00
14269;BME280;7218;51.480;7.006;2023-07-30T07:14:24;99567.78;;;11.48;100.00
14269;BME280;7218;51.480;7.006;2023-07-30T07:16:52;99573.31;;;11.65;100.00
14269;BME280;7218;51.480;7.006;2023-07-30T07:19:18;99564.28;;;11.75;100.00
14269;BME280;7218;51.480;7.006;2023-07-30T07:21:46;99568.00;;;11.66;100.00
14269;BME280;7218;51.480;7.006;2023-07-30T07:24:12;99569.59;;;11.71;100.00
14269;BME280;7218;51.480;7.006;2023-07-30T07:26:39;99567.28;;;11.63;100.00
14269;BME280;7218;51.480;7.006;2023-07-30T07:29:05;99564.44;;;11.69;100.00
14269;BME280;7218;51.480;7.006;2023-07-30T07:31:32;99563.63;;;11.67;100.00
14269;BME280;7218;51.480;7.006;2023-07-30T07:33:58;99564.03;;;11.81;100.00
14269;BME280;7218;51.480;7.006;2023-07-30T07:36:25;99567.78;;;12.21;100.00
14269;BME280;7218;51.480;7.006;2023-07-30T07:38:53;99572.00;;;12.01;100.00
14269;BME280;7218;51.480;7.006;2023-07-30T07:41:19;99575.59;;;12.22;100.00
14269;BME280;7218;51.480;7.006;2023-07-30T07:43:47;99583.13;;;12.53;100.00
14269;BME280;7218;51.480;7.006;2023-07-30T07:46:13;99580.88;;;12.44;100.00
14269;BME280;7218;51.480;7.006;2023-07-30T07:48:40;99583.22;;;12.73;100.00
14269;BME280;7218;51.480;7.006;2023-07-30T07:51:08;99584.47;;;12.63;100.00
14269;BME280;7218;51.480;7.006;2023-07-30T07:53:35;99577.44;;;12.87;100.00
14269;BME280;7218;51.480;7.006;2023-07-30T07:56:03;99580.41;;;12.78;100.00
14269;BME280;7218;51.480;7.006;2023-07-30T07:58:30;99594.41;;;12.32;100.00
14269;BME280;7218;51.480;7.006;2023-07-30T08:00:59;99591.94;;;12.27;100.00
14269;BME280;7218;51.480;7.006;2023-07-30T08:03:26;99590.19;;;12.28;100.00
14269;BME280;7218;51.480;7.006;2023-07-30T08:05:53;99592.56;;;12.57;100.00
14269;BME280;7218;51.480;7.006;2023-07-30T08:08:19;99582.03;;;12.80;100.00
14269;BME280;7218;51.480;7.006;2023-07-30T08:10:46;99586.59;;;12.75;100.00
14269;BME280;7218;51.480;7.006;2023-07-30T08:13:14;99586.97;;;12.66;100.00
14269;BME280;7218;51.480;7.006;2023-07-30T08:15:40;99584.78;;;13.21;100.00
14269;BME280;7218;51.480;7.006;2023-07-30T08:18:07;99592.94;;;12.91;100.00
14269;BME280;7218;51.480;7.006;2023-07-30T08:20:33;99585.81;;;12.73;100.00
14269;BME280;7218;51.480;7.006;2023-07-30T08:23:00;99588.69;;;12.67;100.00
14269;BME280;7218;51.480;7.006;2023-07-30T08:25:26;99579.78;;;12.71;100.00
14269;BME280;7218;51.480;7.006;2023-07-30T08:27:53;99594.63;;;12.49;100.00
14269;BME280;7218;51.480;7.006;2023-07-30T08:30:20;99584.59;;;12.82;100.00
14269;BME280;7218;51.480;7.006;2023-07-30T08:32:47;99579.97;;;13.10;100.00
14269;BME280;7218;51.480;7.006;2023-07-30T08:35:13;99584.94;;;13.18;100.00
14269;BME280;7218;51.480;7.006;2023-07-30T08:37:40;99576.16;;;12.97;100.00
14269;BME280;7218;51.480;7.006;2023-07-30T08:40:08;99581.25;;;13.00;100.00
14269;BME280;7218;51.480;7.006;2023-07-30T08:42:35;99583.13;;;13.20;100.00
14269;BME280;7218;51.480;7.006;2023-07-30T08:45:05;99584.38;;;13.52;100.00
14269;BME280;7218;51.480;7.006;2023-07-30T08:47:33;99577.16;;;13.36;100.00
14269;BME280;7218;51.480;7.006;2023-07-30T08:50:00;99580.78;;;13.54;100.00
14269;BME280;7218;51.480;7.006;2023-07-30T08:52:29;99577.22;;;13.75;100.00
14269;BME280;7218;51.480;7.006;2023-07-30T08:54:56;99591.25;;;13.74;100.00
14269;BME280;7218;51.480;7.006;2023-07-30T08:57:26;99582.84;;;13.26;100.00
14269;BME280;7218;51.480;7.006;2023-07-30T09:00:00;99584.41;;;13.08;100.00
14269;BME280;7218;51.480;7.006;2023-07-30T09:02:31;99592.66;;;13.21;100.00
14269;BME280;7218;51.480;7.006;2023-07-30T09:05:01;99599.94;;;12.91;100.00
14269;BME280;7218;51.480;7.006;2023-07-30T09:07:27;99597.69;;;13.25;100.00
14269;BME280;7218;51.480;7.006;2023-07-30T09:09:54;99601.25;;;13.24;100.00
14269;BME280;7218;51.480;7.006;2023-07-30T09:12:25;99606.81;;;13.37;100.00
14269;BME280;7218;51.480;7.006;2023-07-30T09:14:52;99608.16;;;13.88;100.00
14269;BME280;7218;51.480;7.006;2023-07-30T09:17:19;99613.47;;;14.64;100.00
14269;BME280;7218;51.480;7.006;2023-07-30T09:19:46;99614.72;;;14.16;100.00
14269;BME280;7218;51.480;7.006;2023-07-30T09:22:19;99610.03;;;14.04;100.00
14269;BME280;7218;51.480;7.006;2023-07-30T09:24:46;99610.41;;;13.95;100.00
14269;BME280;7218;51.480;7.006;2023-07-30T09:27:12;99609.00;;;14.27;100.00
14269;BME280;7218;51.480;7.006;2023-07-30T09:29:50;99605.91;;;14.94;100.00
14269;BME280;7218;51.480;7.006;2023-07-30T09:32:16;99607.69;;;14.93;100.00
14269;BME280;7218;51.480;7.006;2023-07-30T09:34:44;99610.66;;;14.86;100.00
14269;BME280;7218;51.480;7.006;2023-07-30T09:37:12;99614.22;;;14.66;100.00
14269;BME280;7218;51.480;7.006;2023-07-30T09:39:40;99610.16;;;15.32;100.00
14269;BME280;7218;51.480;7.006;2023-07-30T09:42:07;99603.06;;;14.80;98.29
14269;BME280;7218;51.480;7.006;2023-07-30T09:44:37;99614.94;;;14.88;98.19
14269;BME280;7218;51.480;7.006;2023-07-30T09:47:04;99628.91;;;14.89;96.85
14269;BME280;7218;51.480;7.006;2023-07-30T09:49:31;99613.91;;;14.91;97.99
14269;BME280;7218;51.480;7.006;2023-07-30T09:51:58;99621.13;;;15.04;97.81
14269;BME280;7218;51.480;7.006;2023-07-30T09:54:25;99609.88;;;15.20;98.37
14269;BME280;7218;51.480;7.006;2023-07-30T09:56:53;99618.00;;;15.15;97.52
14269;BME280;7218;51.480;7.006;2023-07-30T09:59:19;99619.41;;;15.22;96.07
14269;BME280;7218;51.480;7.006;2023-07-30T10:01:47;99613.91;;;14.91;97.45
14269;BME280;7218;51.480;7.006;2023-07-30T10:04:15;99611.19;;;15.11;96.21
14269;BME280;7218;51.480;7.006;2023-07-30T10:06:47;99616.88;;;15.89;89.18
14269;BME280;7218;51.480;7.006;2023-07-30T10:09:17;99610.94;;;15.86;90.47
14269;BME280;7218;51.480;7.006;2023-07-30T10:11:46;99618.84;;;15.16;89.08
14269;BME280;7218;51.480;7.006;2023-07-30T10:14:17;99604.59;;;15.38;91.40
14269;BME280;7218;51.480;7.006;2023-07-30T10:16:50;99613.97;;;15.78;89.65
14269;BME280;7218;51.480;7.006;2023-07-30T10:19:17;99609.72;;;16.26;86.09
14269;BME280;7218;51.480;7.006;2023-07-30T10:21:43;99607.97;;;16.42;82.13
14269;BME280;7218;51.480;7.006;2023-07-30T10:24:10;99619.00;;;16.33;83.74
14269;BME280;7218;51.480;7.006;2023-07-30T10:26:36;99605.56;;;16.05;85.90
14269;BME280;7218;51.480;7.006;2023-07-30T10:29:13;99601.06;;;16.40;83.68
14269;BME280;7218;51.480;7.006;2023-07-30T10:31:43;99611.56;;;15.91;87.02
14269;BME280;7218;51.480;7.006;2023-07-30T10:34:10;99601.03;;;15.39;87.95
14269;BME280;7218;51.480;7.006;2023-07-30T10:36:41;99614.16;;;15.22;88.06
14269;BME280;7218;51.480;7.006;2023-07-30T10:39:13;99614.78;;;14.91;90.75
14269;BME280;7218;51.480;7.006;2023-07-30T10:41:40;99637.00;;;14.47;90.97
14269;BME280;7218;51.480;7.006;2023-07-30T10:44:07;99626.81;;;14.95;91.14
14269;BME280;7218;51.480;7.006;2023-07-30T10:46:44;99623.91;;;16.23;86.80
14269;BME280;7218;51.480;7.006;2023-07-30T10:49:11;99613.41;;;15.89;87.01
14269;BME280;7218;51.480;7.006;2023-07-30T10:51:38;99619.22;;;15.96;85.88
14269;BME280;7218;51.480;7.006;2023-07-30T10:54:06;99611.25;;;15.80;87.15
14269;BME280;7218;51.480;7.006;2023-07-30T10:56:34;99615.94;;;16.41;82.79
14269;BME280;7218;51.480;7.006;2023-07-30T10:59:03;99608.34;;;17.44;79.30
14269;BME280;7218;51.480;7.006;2023-07-30T11:01:30;99614.53;;;17.59;78.52
14269;BME280;7218;51.480;7.006;2023-07-30T11:03:57;99605.34;;;17.66;73.41
14269;BME280;7218;51.480;7.006;2023-07-30T11:06:25;99610.41;;;18.41;71.69
14269;BME280;7218;51.480;7.006;2023-07-30T11:08:52;99613.75;;;17.27;73.74
14269;BME280;7218;51.480;7.006;2023-07-30T11:11:18;99613.72;;;18.02;69.91
14269;BME280;7218;51.480;7.006;2023-07-30T11:13:46;99612.13;;;17.25;73.41
14269;BME280;7218;51.480;7.006;2023-07-30T11:16:14;99615.88;;;16.58;76.84
14269;BME280;7218;51.480;7.006;2023-07-30T11:18:42;99614.81;;;17.39;74.15
14269;BME280;7218;51.480;7.006;2023-07-30T11:21:11;99615.31;;;17.61;70.94
14269;BME280;7218;51.480;7.006;2023-07-30T11:23:39;99622.47;;;17.59;70.70
14269;BME280;7218;51.480;7.006;2023-07-30T11:26:08;99613.94;;;17.54;70.91
14269;BME280;7218;51.480;7.006;2023-07-30T11:28:36;99628.91;;;16.61;74.14
14269;BME280;7218;51.480;7.006;2023-07-30T11:31:04;99624.19;;;16.50;74.84
14269;BME280;7218;51.480;7.006;2023-07-30T11:33:30;99616.34;;;16.66;75.88
14269;BME280;7218;51.480;7.006;2023-07-30T11:36:00;99624.84;;;16.54;77.43
14269;BME280;7218;51.480;7.006;2023-07-30T11:38:29;99627.00;;;16.47;77.91
14269;BME280;7218;51.480;7.006;2023-07-30T11:40:56;99628.75;;;15.98;80.47
14269;BME280;7218;51.480;7.006;2023-07-30T11:43:23;99622.53;;;15.99;77.58
14269;BME280;7218;51.480;7.006;2023-07-30T11:46:06;99616.88;;;16.72;77.91
14269;BME280;7218;51.480;7.006;2023-07-30T11:48:32;99607.34;;;17.01;75.63
14269;BME280;7218;51.480;7.006;2023-07-30T11:50:59;99626.50;;;17.19;72.96
14269;BME280;7218;51.480;7.006;2023-07-30T11:53:45;99618.34;;;17.69;70.47
14269;BME280;7218;51.480;7.006;2023-07-30T11:56:16;99613.16;;;17.97;68.11
14269;BME280;7218;51.480;7.006;2023-07-30T11:58:43;99610.28;;;17.86;67.87
14269;BME280;7218;51.480;7.006;2023-07-30T12:01:09;99613.78;;;17.87;70.50
14269;BME280;7218;51.480;7.006;2023-07-30T12:03:37;99609.22;;;18.33;69.76
14269;BME280;7218;51.480;7.006;2023-07-30T12:06:04;99608.06;;;18.51;68.21
14269;BME280;7218;51.480;7.006;2023-07-30T12:08:33;99607.28;;;17.92;70.14
14269;BME280;7218;51.480;7.006;2023-07-30T12:11:04;99614.47;;;17.60;72.03
14269;BME280;7218;51.480;7.006;2023-07-30T12:13:31;99622.38;;;18.19;72.21
14269;BME280;7218;51.480;7.006;2023-07-30T12:15:58;99618.19;;;19.26;63.99
14269;BME280;7218;51.480;7.006;2023-07-30T12:18:26;99613.31;;;19.47;61.96
14269;BME280;7218;51.480;7.006;2023-07-30T12:20:54;99621.66;;;20.44;58.80
14269;BME280;7218;51.480;7.006;2023-07-30T12:23:21;99623.28;;;19.03;64.54
14269;BME280;7218;51.480;7.006;2023-07-30T12:25:48;99618.91;;;18.61;67.35
14269;BME280;7218;51.480;7.006;2023-07-30T12:28:15;99617.84;;;18.06;69.83
14269;BME280;7218;51.480;7.006;2023-07-30T12:30:42;99624.50;;;19.24;65.71
14269;BME280;7218;51.480;7.006;2023-07-30T12:33:08;99619.66;;;19.97;61.57
14269;BME280;7218;51.480;7.006;2023-07-30T12:35:35;99621.13;;;19.22;61.01
14269;BME280;7218;51.480;7.006;2023-07-30T12:38:01;99624.97;;;19.30;63.03
14269;BME280;7218;51.480;7.006;2023-07-30T12:40:28;99625.16;;;20.57;53.78
14269;BME280;7218;51.480;7.006;2023-07-30T12:43:00;99620.81;;;20.05;55.36
14269;BME280;7218;51.480;7.006;2023-07-30T12:45:27;99637.69;;;19.11;60.17
14269;BME280;7218;51.480;7.006;2023-07-30T12:47:54;99634.84;;;19.41;59.61
14269;BME280;7218;51.480;7.006;2023-07-30T12:50:20;99647.19;;;18.59;64.31
14269;BME280;7218;51.480;7.006;2023-07-30T12:52:47;99639.91;;;18.05;64.97
14269;BME280;7218;51.480;7.006;2023-07-30T12:55:13;99651.41;;;17.29;67.66
14269;BME280;7218;51.480;7.006;2023-07-30T12:57:40;99649.13;;;16.76;70.82
14269;BME280;7218;51.480;7.006;2023-07-30T13:00:07;99657.56;;;16.83;70.88
14269;BME280;7218;51.480;7.006;2023-07-30T13:02:35;99652.09;;;16.86;70.02